Terminal Aerodrome Forecast
Issued by NWS

Home | Current Version | Previous Version | Graphics & Text | Print | Product List | Glossary On
Versions: 1 2 3 4 5 6 7 8 9 10 11 12 13
000
FTUS43 KOAX 302320
TAFCDR
TAF
KCDR 302320Z 0100/0124 03013KT P6SM -RA OVC035
     FM010200 02008KT P6SM -RASN SCT015 OVC025
     FM010500 01006KT P6SM -RASN SCT020 OVC030
     FM010600 01006KT P6SM OVC020
     FM012100 03008KT P6SM SCT100=

USA.gov is the U.S. government's official web portal to all federal, state and local government web resources and services.